Time;durP1;ratioP1;P1;durP2;ratioP2;P2;SDS_P1;SDS_P2;PMS_P1;PMS_P2;Temp;Humidity;BMP_temperature;BMP_pressure;BME280_temperature;BME280_humidity;BME280_pressure;Samples;Min_cycle;Max_cycle;Signal;HPM_P1;HPM_P2
2022/01/25 00:29:15;;;;;;;96.93;45.75;;;;;;;5.21;86.84;103277.66;10493107;28;20089;-63
2022/01/25 00:34:37;;;;;;;;;;;;;;;5.05;86.39;103276.00;10492440;28;20040;-63
2022/01/25 00:39:59;;;;;;;101.90;48.25;;;;;;;5.28;86.66;103269.00;10491970;28;19924;-63
2022/01/25 00:45:22;;;;;;;98.85;46.08;;;;;;;5.12;86.82;103267.34;10491826;28;20036;-62
2022/01/25 00:50:44;;;;;;;99.82;47.22;;;;;;;5.16;87.13;103263.88;10491865;28;20054;-62
2022/01/25 00:56:08;;;;;;;91.60;46.20;;;;;;;5.22;86.97;103261.28;10491357;28;20040;-62
2022/01/25 01:01:31;;;;;;;90.68;45.13;;;;;;;5.18;86.47;103258.69;10492641;28;20059;-63
2022/01/25 01:06:55;;;;;;;99.38;46.55;;;;;;;4.96;87.95;103251.91;10490405;28;20056;-63
2022/01/25 01:12:49;;;;;;;98.60;46.85;;;;;;;5.10;88.51;103248.38;10491748;28;20044;-63
2022/01/25 01:29:49;;;;;;;96.00;46.85;;;;;;;5.14;87.99;103252.69;10492646;28;20113;-65
2022/01/25 01:40:53;;;;;;;89.65;45.38;;;;;;;5.03;88.49;103251.00;10512967;28;20056;-63
2022/01/25 01:46:30;;;;;;;86.10;43.33;;;;;;;5.05;88.38;103246.69;10540591;28;20040;-62
2022/01/25 01:51:52;;;;;;;100.60;46.00;;;;;;;5.15;88.60;103245.81;10470651;28;20144;-63
2022/01/25 01:57:13;;;;;;;86.35;44.15;;;;;;;5.15;88.45;103241.50;10495404;28;20064;-64
2022/01/25 02:02:35;;;;;;;94.38;44.97;;;;;;;5.12;87.34;103231.16;10498948;28;20045;-63
2022/01/25 02:07:57;;;;;;;94.45;44.17;;;;;;;5.04;88.64;103227.75;10480121;28;20125;-62
2022/01/25 02:13:19;;;;;;;89.45;43.30;;;;;;;5.06;88.59;103228.63;10535585;28;20044;-63
2022/01/25 02:24:21;;;;;;;92.10;43.60;;;;;;;4.99;88.28;103221.72;10489314;28;20367;-63
2022/01/25 02:29:43;;;;;;;85.93;43.40;;;;;;;5.05;89.80;103218.25;10497015;28;20056;-64
2022/01/25 02:35:05;;;;;;;84.75;43.13;;;;;;;4.98;89.60;103217.44;10496917;28;20059;-63
2022/01/25 02:40:27;;;;;;;91.10;43.47;;;;;;;4.99;89.62;103216.56;10492539;28;20060;-64
2022/01/25 02:46:16;;;;;;;88.75;44.35;;;;;;;4.86;90.18;103201.13;10512650;28;20426;-63
2022/01/25 02:51:46;;;;;;;84.97;42.00;;;;;;;5.11;89.62;103194.97;10499547;28;20101;-63
2022/01/25 02:57:08;;;;;;;85.22;43.00;;;;;;;4.92;90.21;103196.78;10493254;28;20040;-63
2022/01/25 03:02:29;;;;;;;84.88;41.83;;;;;;;4.98;90.01;103191.59;10496273;28;20059;-62
2022/01/25 03:07:51;;;;;;;87.10;41.20;;;;;;;4.92;89.72;103186.47;10494267;28;20077;-63
2022/01/25 03:13:20;;;;;;;81.63;41.67;;;;;;;5.00;89.63;103189.84;10495581;28;20047;-63
2022/01/25 03:18:45;;;;;;;84.18;41.20;;;;;;;4.91;90.30;103189.03;10495791;28;20059;-63
2022/01/25 03:24:07;;;;;;;80.47;41.10;;;;;;;5.06;90.59;103191.56;10494785;28;20044;-65
2022/01/25 03:29:29;;;;;;;82.95;43.28;;;;;;;4.92;90.81;103201.09;10495917;28;20394;-63
2022/01/25 03:34:51;;;;;;;83.68;41.67;;;;;;;4.98;90.83;103201.91;10494954;28;20049;-63
2022/01/25 03:40:13;;;;;;;77.35;41.50;;;;;;;4.92;90.37;103195.91;10499237;28;20056;-63
2022/01/25 03:45:37;;;;;;;70.15;38.92;;;;;;;5.10;90.34;103201.88;10484149;28;20052;-63
2022/01/25 03:50:59;;;;;;;78.22;39.75;;;;;;;4.87;90.12;103198.53;10493746;28;20161;-63
2022/01/25 03:56:23;;;;;;;76.20;41.20;;;;;;;4.95;91.26;103195.91;10483008;28;20052;-63
2022/01/25 04:01:44;;;;;;;82.45;41.13;;;;;;;4.87;91.65;103193.34;10481133;28;20060;-63
2022/01/25 04:07:11;;;;;;;80.45;40.30;;;;;;;4.96;91.89;103198.47;10470174;28;20032;-64
2022/01/25 04:12:33;;;;;;;77.38;39.67;;;;;;;5.04;92.77;103201.91;10488231;28;20048;-64
2022/01/25 04:18:02;;;;;;;73.85;40.05;;;;;;;5.06;91.07;103189.84;10492613;28;20068;-63
2022/01/25 04:29:09;;;;;;;79.50;41.00;;;;;;;5.05;92.53;103193.28;10485442;28;20057;-64
2022/01/25 04:51:40;;;;;;;74.97;38.08;;;;;;;4.93;92.28;103167.50;10493255;28;20049;-62
2022/01/25 05:02:51;;;;;;;71.15;37.42;;;;;;;5.08;91.94;103177.78;10492530;28;20058;-63
2022/01/25 05:08:28;;;;;;;77.50;38.28;;;;;;;5.06;92.49;103169.16;10490293;28;20058;-62
2022/01/25 05:13:56;;;;;;;78.88;39.22;;;;;;;5.03;92.18;103169.16;10503090;28;20405;-62
2022/01/25 05:24:41;;;;;;;75.53;38.70;;;;;;;4.88;92.71;103168.34;10504842;28;20478;-62
2022/01/25 05:30:03;;;;;;;68.85;36.80;;;;;;;5.00;92.82;103169.19;10505532;28;20058;-62
2022/01/25 05:35:25;;;;;;;73.57;38.03;;;;;;;4.86;92.17;103181.28;10505703;28;20060;-65
2022/01/25 05:40:58;;;;;;;75.95;38.30;;;;;;;4.89;93.72;103175.25;10504833;28;20630;-64
2022/01/25 05:46:30;;;;;;;74.68;38.70;;;;;;;4.90;93.90;103183.00;10504835;28;20056;-63
2022/01/25 05:51:52;;;;;;;77.25;38.83;;;;;;;4.96;93.81;103187.28;10491457;28;20091;-63
2022/01/25 05:57:14;;;;;;;73.47;38.15;;;;;;;4.92;94.09;103186.47;10477982;28;20049;-63
2022/01/25 06:02:36;;;;;;;77.28;37.20;;;;;;;5.00;93.39;103192.44;10463783;28;20059;-63
2022/01/25 06:07:58;;;;;;;76.97;37.83;;;;;;;4.94;94.52;103187.31;10488258;28;20060;-62
2022/01/25 06:13:19;;;;;;;75.28;37.60;;;;;;;4.97;93.25;103179.53;10504569;28;20051;-63
2022/01/25 06:18:45;;;;;;;76.47;38.95;;;;;;;5.05;94.01;103182.94;10504517;28;20052;-62
2022/01/25 06:24:06;;;;;;;72.15;37.70;;;;;;;5.04;93.77;103181.22;10498961;28;20048;-64
2022/01/25 06:29:28;;;;;;;74.25;38.40;;;;;;;5.02;94.84;103177.78;10521944;28;20049;-63
2022/01/25 06:34:50;;;;;;;76.13;37.13;;;;;;;5.07;93.55;103196.72;10508061;28;20066;-62
2022/01/25 06:40:12;;;;;;;76.20;37.08;;;;;;;5.07;94.32;103186.41;10487810;28;20151;-63
2022/01/25 06:45:39;;;;;;;79.28;38.50;;;;;;;5.05;94.20;103188.13;10497768;28;20044;-63
2022/01/25 06:51:05;;;;;;;73.28;36.90;;;;;;;5.03;94.20;103181.22;10498951;28;20075;-63
2022/01/25 06:56:26;;;;;;;80.22;36.35;;;;;;;5.11;93.97;103177.72;10495905;28;20056;-63
2022/01/25 07:01:48;;;;;;;69.35;36.13;;;;;;;5.06;94.61;103182.09;10477667;28;20045;-62
2022/01/25 07:07:10;;;;;;;74.55;37.45;;;;;;;4.97;94.73;103174.34;10495551;28;20080;-64
2022/01/25 07:12:32;;;;;;;77.90;36.88;;;;;;;5.05;94.82;103179.50;10496016;28;20657;-64
2022/01/25 07:17:54;;;;;;;72.97;36.58;;;;;;;5.07;94.82;103191.56;10495240;28;20079;-63
2022/01/25 07:23:16;;;;;;;72.55;36.65;;;;;;;5.05;94.41;103187.25;10495690;28;20087;-64
2022/01/25 07:28:38;;;;;;;70.07;36.35;;;;;;;5.06;94.38;103191.56;10480569;28;20059;-63
2022/01/25 07:34:00;;;;;;;75.90;36.55;;;;;;;4.87;95.90;103195.09;10493935;28;20051;-63
2022/01/25 07:39:35;;;;;;;75.30;37.38;;;;;;;5.07;94.70;103188.09;10494951;28;20117;-64
2022/01/25 07:44:57;;;;;;;72.75;37.03;;;;;;;4.94;95.23;103191.59;10493596;28;20036;-62
2022/01/25 07:50:33;;;;;;;74.28;38.22;;;;;;;5.10;95.36;103190.69;10483693;28;20098;-63
2022/01/25 07:55:59;;;;;;;71.03;36.30;;;;;;;4.98;96.01;103191.59;10493625;28;20044;-63
2022/01/25 08:01:21;;;;;;;73.75;36.30;;;;;;;5.05;95.59;103187.25;10493952;28;20049;-63
2022/01/25 08:06:43;;;;;;;68.95;34.53;;;;;;;5.07;95.49;103188.09;10491856;28;20044;-63
2022/01/25 08:12:08;;;;;;;76.22;37.38;;;;;;;5.07;94.77;103188.97;10492616;28;20619;-64
2022/01/25 08:17:30;;;;;;;72.03;36.78;;;;;;;5.08;95.17;103187.25;10467008;28;20101;-64
2022/01/25 08:23:01;;;;;;;72.85;36.20;;;;;;;5.02;95.03;103187.28;10517739;28;20053;-63
2022/01/25 08:28:23;;;;;;;78.00;37.58;;;;;;;5.07;95.82;103191.56;10496528;28;20052;-63
2022/01/25 08:33:47;;;;;;;75.72;35.33;;;;;;;5.10;95.09;103186.34;10458677;28;20041;-63
2022/01/25 08:39:13;;;;;;;72.85;36.47;;;;;;;4.96;95.28;103198.47;10460974;28;20060;-63
2022/01/25 08:44:46;;;;;;;74.97;36.63;;;;;;;5.12;95.18;103200.13;10501518;28;20082;-63
2022/01/25 08:50:21;;;;;;;72.65;34.90;;;;;;;5.11;95.50;103197.56;10479631;28;20053;-64
2022/01/25 08:55:46;;;;;;;72.72;35.90;;;;;;;5.18;97.50;103189.78;10477554;28;20363;-64
2022/01/25 09:01:08;;;;;;;75.80;35.58;;;;;;;5.14;96.11;103202.72;10492988;28;20050;-63
2022/01/25 09:06:30;;;;;;;78.38;36.13;;;;;;;5.21;95.15;103202.69;10490671;28;20053;-64
2022/01/25 09:11:51;;;;;;;85.45;36.85;;;;;;;5.19;94.82;103207.00;10450907;28;20064;-63
2022/01/25 09:17:14;;;;;;;75.35;35.88;;;;;;;5.24;95.35;103199.22;10458910;28;20429;-62
2022/01/25 09:22:35;;;;;;;74.35;36.40;;;;;;;5.30;95.17;103205.22;10491807;28;20066;-63
2022/01/25 09:28:17;;;;;;;78.15;36.60;;;;;;;5.23;96.65;103213.91;10490865;28;20044;-63
2022/01/25 09:33:39;;;;;;;67.65;34.97;;;;;;;5.15;96.54;103205.28;10490858;28;20032;-63
2022/01/25 09:39:01;;;;;;;74.25;35.00;;;;;;;5.26;95.72;103205.25;10491727;28;20044;-63
2022/01/25 09:44:23;;;;;;;71.18;35.30;;;;;;;5.36;95.94;103204.31;10490866;28;20054;-63
2022/01/25 09:49:45;;;;;;;71.22;35.38;;;;;;;5.35;95.71;103212.94;10490808;28;20511;-63
2022/01/25 09:55:26;;;;;;;74.32;36.30;;;;;;;5.41;96.05;103225.88;10491295;28;20051;-63
2022/01/25 10:00:48;;;;;;;75.93;36.65;;;;;;;5.28;95.83;103219.88;10496667;28;20131;-63
2022/01/25 10:06:14;;;;;;;70.57;33.55;;;;;;;5.38;95.56;103228.47;10497042;28;20052;-63
2022/01/25 10:11:37;;;;;;;;;;;;;;;5.45;96.05;103220.66;10498587;28;20058;-63
2022/01/25 10:16:59;;;;;;;70.25;34.42;;;;;;;5.27;96.99;103230.25;10497021;28;19921;-63
2022/01/25 10:22:21;;;;;;;78.15;37.05;;;;;;;5.39;96.83;103225.00;10497324;28;20094;-63
2022/01/25 10:28:01;;;;;;;76.45;36.15;;;;;;;5.28;97.16;103222.47;10496455;28;20059;-63
2022/01/25 10:33:30;;;;;;;76.65;35.65;;;;;;;5.36;97.16;103236.25;10482709;28;20063;-64
2022/01/25 10:38:54;;;;;;;69.70;35.42;;;;;;;5.35;96.96;103221.59;10497757;28;20131;-63
2022/01/25 10:44:15;;;;;;;71.20;34.58;;;;;;;5.27;97.94;103231.09;10495976;28;20074;-62
2022/01/25 10:49:49;;;;;;;69.57;34.45;;;;;;;5.40;97.90;103231.91;10496400;28;20091;-63
2022/01/25 10:55:12;;;;;;;70.43;34.13;;;;;;;5.34;98.67;103231.91;10469805;28;20139;-63
2022/01/25 11:00:42;;;;;;;67.80;34.30;;;;;;;5.33;99.27;103231.06;10473557;28;20498;-63
2022/01/25 11:06:14;;;;;;;68.40;34.50;;;;;;;5.35;99.21;103237.09;10496277;28;20136;-65
2022/01/25 11:11:51;;;;;;;76.00;32.05;;;;;;;5.36;99.06;103231.06;10495795;28;20612;-64
2022/01/25 11:17:12;;;;;;;65.57;30.85;;;;;;;5.33;98.43;103225.91;10482883;28;20360;-64
2022/01/25 11:22:37;;;;;;;69.50;32.65;;;;;;;5.40;98.36;103230.16;10496205;28;20518;-63
2022/01/25 11:27:59;;;;;;;63.28;31.33;;;;;;;5.40;98.29;103218.97;10494288;28;20058;-62
2022/01/25 11:33:21;;;;;;;66.95;31.90;;;;;;;5.46;99.59;103222.38;10495497;28;20052;-63
2022/01/25 11:38:47;;;;;;;63.85;30.13;;;;;;;5.51;98.59;103214.59;10495343;28;20143;-63
2022/01/25 11:44:16;;;;;;;69.50;30.38;;;;;;;5.57;98.98;103215.41;10494933;28;20094;-64
2022/01/25 11:49:55;;;;;;;68.25;30.02;;;;;;;5.47;100.00;103208.59;10495736;28;20486;-63
2022/01/25 11:55:16;;;;;;;67.97;30.67;;;;;;;5.67;100.00;103204.16;10495011;28;20507;-63
2022/01/25 12:00:49;;;;;;;61.75;31.30;;;;;;;5.47;100.00;103187.91;10495006;28;20060;-63
2022/01/25 12:06:18;;;;;;;70.32;31.73;;;;;;;5.36;100.00;103184.53;10452614;28;20045;-63
2022/01/25 12:12:00;;;;;;;73.32;31.88;;;;;;;5.42;100.00;103184.47;10467622;28;20058;-64
2022/01/25 12:17:43;;;;;;;72.80;31.35;;;;;;;5.52;100.00;103175.81;10493405;28;20596;-63
2022/01/25 12:23:17;;;;;;;66.75;31.45;;;;;;;5.53;100.00;103156.81;10491971;28;20168;-63
2022/01/25 12:28:44;;;;;;;66.80;30.42;;;;;;;5.57;100.00;103158.50;10491668;28;20056;-63
2022/01/25 12:34:25;;;;;;;65.18;30.48;;;;;;;5.60;100.00;103155.91;10492990;28;20049;-63
2022/01/25 12:39:47;;;;;;;80.53;30.20;;;;;;;5.63;100.00;103148.13;10492764;28;20131;-63
2022/01/25 12:45:10;;;;;;;62.60;31.20;;;;;;;5.67;100.00;103149.84;10492398;28;20166;-63
2022/01/25 12:50:34;;;;;;;74.07;32.53;;;;;;;5.58;100.00;103143.88;10493322;28;20063;-64
2022/01/25 12:55:59;;;;;;;66.65;31.20;;;;;;;5.54;100.00;103132.66;10491913;28;20058;-64
2022/01/25 13:01:24;;;;;;;71.33;32.77;;;;;;;5.59;100.00;103137.81;10492000;28;20415;-63
2022/01/25 13:06:51;;;;;;;73.03;32.60;;;;;;;5.50;100.00;103132.69;10491963;28;20055;-63
2022/01/25 13:12:25;;;;;;;62.15;30.23;;;;;;;5.50;100.00;103130.97;10491339;28;20087;-63
2022/01/25 13:17:47;;;;;;;72.88;31.55;;;;;;;5.60;100.00;103132.63;10492176;28;20052;-63
2022/01/25 13:23:10;;;;;;;71.05;32.45;;;;;;;5.49;100.00;103126.69;10490650;28;20049;-63
2022/01/25 13:28:39;;;;;;;71.55;32.17;;;;;;;5.43;100.00;103120.69;10490506;28;20056;-64
2022/01/25 13:34:11;;;;;;;71.43;32.92;;;;;;;5.39;100.00;103137.94;10497628;28;20045;-63
2022/01/25 13:39:35;;;;;;;75.40;33.72;;;;;;;5.44;100.00;103125.84;10499322;28;20107;-63
2022/01/25 13:51:02;;;;;;;70.93;33.55;;;;;;;5.47;100.00;103118.06;10484745;28;20079;-63
2022/01/25 13:56:30;;;;;;;73.38;33.95;;;;;;;5.46;100.00;103103.41;10498035;28;20040;-63
2022/01/25 14:01:52;;;;;;;68.55;32.50;;;;;;;5.53;100.00;103112.81;10458106;28;20049;-63
2022/01/25 14:07:15;;;;;;;69.72;32.30;;;;;;;5.36;100.00;103104.38;10465558;28;20128;-63
2022/01/25 14:24:05;;;;;;;73.78;34.20;;;;;;;5.32;100.00;103105.25;10498455;28;20049;-63
2022/01/25 14:29:28;;;;;;;67.72;33.17;;;;;;;5.38;100.00;103105.22;10497870;28;20056;-63
2022/01/25 14:35:09;;;;;;;72.23;33.20;;;;;;;5.24;100.00;103107.00;10496349;28;20143;-63
2022/01/25 14:40:31;;;;;;;80.10;33.70;;;;;;;5.32;100.00;103105.25;10497223;28;20502;-63
2022/01/25 14:46:09;;;;;;;79.40;33.28;;;;;;;5.41;100.00;103100.00;10496224;28;20051;-65
2022/01/25 14:51:42;;;;;;;71.45;34.47;;;;;;;5.34;100.00;103098.34;10497089;28;20047;-65
2022/01/25 14:57:09;;;;;;;78.32;33.97;;;;;;;5.36;100.00;103094.00;10494772;28;20565;-64
2022/01/25 15:02:31;;;;;;;73.95;33.70;;;;;;;5.43;100.00;103103.44;10449377;28;20572;-64
2022/01/25 15:07:53;;;;;;;75.30;33.35;;;;;;;5.29;100.00;103089.75;10482591;28;20041;-65
2022/01/25 15:13:24;;;;;;;80.38;33.33;;;;;;;5.32;100.00;103094.03;10490207;28;20406;-64
2022/01/25 15:18:53;;;;;;;81.50;34.63;;;;;;;5.07;100.00;103105.41;10489772;28;20047;-63
2022/01/25 15:24:15;;;;;;;77.32;33.67;;;;;;;5.12;100.00;103101.06;10490059;28;20070;-63
2022/01/25 15:29:37;;;;;;;82.28;34.15;;;;;;;5.14;100.00;103095.00;10476088;28;20048;-63
2022/01/25 15:34:59;;;;;;;78.25;34.55;;;;;;;5.22;100.00;103101.00;10488737;28;20072;-63
2022/01/25 15:40:20;;;;;;;79.43;33.95;;;;;;;5.36;100.00;103099.19;10484774;28;20040;-65
2022/01/25 15:46:01;;;;;;;81.18;34.08;;;;;;;5.37;100.00;103098.31;10472711;28;20064;-62
2022/01/25 15:51:24;;;;;;;79.30;35.35;;;;;;;5.28;100.00;103103.53;10460395;28;20055;-63
2022/01/25 15:56:45;;;;;;;70.28;32.60;;;;;;;5.31;100.00;103093.19;10494474;28;20422;-62
2022/01/25 16:02:12;;;;;;;74.82;33.88;;;;;;;5.30;100.00;103088.88;10480886;28;20083;-64
2022/01/25 16:07:34;;;;;;;75.13;32.80;;;;;;;5.28;100.00;103082.84;10484897;28;20045;-63
2022/01/25 16:12:56;;;;;;;77.50;33.35;;;;;;;5.17;100.00;103089.81;10466894;28;20055;-64
2022/01/25 16:18:18;;;;;;;77.40;33.00;;;;;;;5.13;100.00;103082.94;10469863;28;20056;-64
2022/01/25 16:23:40;;;;;;;75.78;31.02;;;;;;;5.16;100.00;103085.53;10472384;28;20052;-63
2022/01/25 16:29:02;;;;;;;82.32;33.38;;;;;;;5.12;100.00;103070.91;10454115;28;20049;-63
2022/01/25 16:34:25;;;;;;;72.78;33.63;;;;;;;5.16;100.00;103071.75;10458282;28;20055;-63
2022/01/25 16:39:47;;;;;;;76.63;31.63;;;;;;;5.10;100.00;103067.47;10470030;28;20049;-63
2022/01/25 16:45:11;;;;;;;74.00;32.83;;;;;;;5.19;100.00;103061.38;10478020;28;20048;-64
2022/01/25 16:50:38;;;;;;;71.75;32.53;;;;;;;5.18;100.00;103059.66;10472747;28;20415;-63
2022/01/25 16:56:00;;;;;;;67.43;30.27;;;;;;;5.05;100.00;103074.41;10468462;28;20049;-63
2022/01/25 17:01:22;;;;;;;80.60;34.42;;;;;;;5.07;100.00;103071.78;10462450;28;20063;-63
2022/01/25 17:06:45;;;;;;;82.25;33.58;;;;;;;5.12;100.00;103070.06;10464203;28;20052;-63
2022/01/25 17:12:08;;;;;;;83.72;35.00;;;;;;;5.10;100.00;103077.78;10500038;28;20532;-63
2022/01/25 17:17:51;;;;;;;75.25;33.15;;;;;;;5.06;100.00;103070.94;10484638;28;20045;-63
2022/01/25 17:23:13;;;;;;;80.00;31.88;;;;;;;5.02;100.00;103078.75;10485711;28;20621;-63
2022/01/25 17:28:35;;;;;;;83.03;31.95;;;;;;;5.10;100.00;103076.94;10463154;28;20053;-63
2022/01/25 17:33:56;;;;;;;70.13;30.63;;;;;;;4.99;100.00;103084.75;10483068;28;20048;-63
2022/01/25 17:39:18;;;;;;;73.38;31.75;;;;;;;5.10;100.00;103076.94;10469327;28;20044;-65
2022/01/25 17:44:40;;;;;;;79.80;33.20;;;;;;;5.09;100.00;103086.44;10484897;28;20083;-63
2022/01/25 17:50:04;;;;;;;81.38;34.60;;;;;;;5.13;100.00;103089.88;10469805;28;20080;-63
2022/01/25 17:55:26;;;;;;;82.63;34.30;;;;;;;5.03;100.00;103091.63;10485326;28;20053;-63
2022/01/25 18:00:48;;;;;;;89.00;35.65;;;;;;;5.14;100.00;103086.41;10478222;28;20053;-63
2022/01/25 18:06:16;;;;;;;88.85;36.30;;;;;;;5.04;100.00;103088.19;10469169;28;20049;-63
2022/01/25 18:11:40;;;;;;;91.95;35.38;;;;;;;4.98;100.00;103092.53;10467688;28;20482;-63
2022/01/25 18:17:02;;;;;;;86.88;35.15;;;;;;;5.09;100.00;103107.13;10461928;28;20111;-63
2022/01/25 18:22:34;;;;;;;88.45;36.15;;;;;;;5.09;100.00;103112.28;10464505;28;20483;-65
2022/01/25 18:27:56;;;;;;;80.47;35.13;;;;;;;5.04;100.00;103111.44;10464072;28;20036;-65
2022/01/25 18:33:18;;;;;;;89.75;36.25;;;;;;;5.05;100.00;103110.59;10491337;28;20059;-63
2022/01/25 18:38:40;;;;;;;93.82;37.00;;;;;;;4.94;100.00;103104.63;10492287;28;20072;-63
2022/01/25 18:44:02;;;;;;;95.75;36.63;;;;;;;5.04;100.00;103114.03;10471306;28;20049;-62
2022/01/25 18:49:24;;;;;;;88.80;36.65;;;;;;;5.03;100.00;103112.31;10465797;28;20556;-63
2022/01/25 18:54:46;;;;;;;92.97;37.90;;;;;;;5.01;100.00;103102.88;10486488;28;20790;-63
2022/01/25 19:00:11;;;;;;;84.28;37.92;;;;;;;4.99;100.00;103108.03;10478757;28;20045;-63
2022/01/25 19:05:35;;;;;;;88.53;35.35;;;;;;;4.94;100.00;103104.63;10482003;28;20068;-64
2022/01/25 19:10:57;;;;;;;89.13;37.80;;;;;;;4.99;100.00;103104.59;10479385;28;20068;-63
2022/01/25 19:16:20;;;;;;;102.07;38.38;;;;;;;4.99;100.00;103105.44;10476386;28;20049;-63
2022/01/25 19:21:42;;;;;;;91.40;38.22;;;;;;;5.00;100.00;103101.16;10497804;28;20151;-65
2022/01/25 19:27:03;;;;;;;97.85;38.65;;;;;;;5.04;100.00;103102.81;10476839;28;20048;-64
2022/01/25 19:32:25;;;;;;;95.00;37.35;;;;;;;4.87;100.00;103095.16;10466161;28;20044;-64
2022/01/25 19:37:48;;;;;;;101.38;38.47;;;;;;;4.94;100.00;103099.47;10484096;28;20052;-63
2022/01/25 19:43:13;;;;;;;98.75;38.53;;;;;;;4.91;100.00;103104.63;10481995;28;20059;-63
2022/01/25 19:48:35;;;;;;;96.72;39.65;;;;;;;4.94;100.00;103106.34;10508078;28;20088;-63
2022/01/25 19:53:58;;;;;;;95.72;38.67;;;;;;;5.05;100.00;103105.41;10488049;28;20052;-63
2022/01/25 19:59:21;;;;;;;98.22;39.33;;;;;;;5.02;100.00;103109.75;10483982;28;20044;-64
2022/01/25 20:04:43;;;;;;;111.85;39.65;;;;;;;4.97;100.00;103094.25;10490165;28;20076;-64
2022/01/25 20:10:08;;;;;;;97.00;38.75;;;;;;;4.91;100.00;103086.53;10493835;28;20077;-64
2022/01/25 20:15:30;;;;;;;88.53;38.30;;;;;;;4.98;100.00;103088.22;10492654;28;20036;-63
2022/01/25 20:21:01;;;;;;;99.47;40.40;;;;;;;4.84;100.00;103084.84;10493471;28;20541;-63
2022/01/25 20:26:46;;;;;;;95.40;39.38;;;;;;;4.88;100.00;103081.38;10490338;28;20048;-63
2022/01/25 20:32:10;;;;;;;93.32;39.35;;;;;;;4.87;100.00;103079.66;10491639;28;20135;-63
2022/01/25 20:37:32;;;;;;;98.63;40.90;;;;;;;4.90;100.00;103076.19;10490727;28;20041;-63
2022/01/25 20:42:53;;;;;;;96.90;38.70;;;;;;;4.76;100.00;103080.59;10492104;28;20558;-62
2022/01/25 20:48:15;;;;;;;105.53;40.95;;;;;;;4.81;100.00;103059.03;10492455;28;20045;-62
2022/01/25 20:53:37;;;;;;;93.25;38.45;;;;;;;4.87;100.00;103053.00;10491497;28;20056;-62
2022/01/25 20:59:20;;;;;;;89.40;37.22;;;;;;;4.78;100.00;103059.06;10491637;28;20055;-63
2022/01/25 21:10:17;;;;;;;95.68;36.33;;;;;;;4.78;100.00;103042.69;10491408;28;20059;-63
2022/01/25 21:15:40;;;;;;;94.18;37.30;;;;;;;4.75;100.00;103043.56;10490997;28;20510;-63
2022/01/25 21:21:07;;;;;;;92.35;36.55;;;;;;;4.67;100.00;103038.44;10492101;28;20502;-62
2022/01/25 21:26:29;;;;;;;88.78;38.17;;;;;;;4.67;100.00;103034.16;10491245;28;20468;-63
2022/01/25 21:31:51;;;;;;;93.97;37.78;;;;;;;4.65;100.00;103037.63;10476819;28;20056;-63
2022/01/25 21:37:13;;;;;;;84.68;36.63;;;;;;;4.65;100.00;103042.78;10491274;28;20489;-63
2022/01/25 21:42:35;;;;;;;91.20;38.08;;;;;;;4.67;100.00;103038.44;10491090;28;20049;-63
2022/01/25 21:47:59;;;;;;;86.15;36.45;;;;;;;4.60;100.00;103029.03;10512537;28;20038;-63
2022/01/25 21:53:22;;;;;;;86.35;36.67;;;;;;;4.66;100.00;103026.41;10477575;28;20049;-63
2022/01/25 21:58:44;;;;;;;83.43;35.90;;;;;;;4.62;100.00;103032.47;10475766;28;20045;-63
2022/01/25 22:04:10;;;;;;;82.25;35.22;;;;;;;4.38;100.00;103046.34;10485352;28;20054;-63
2022/01/25 22:09:36;;;;;;;90.25;35.58;;;;;;;4.44;100.00;103050.59;10498046;28;20054;-63
2022/01/25 22:14:58;;;;;;;84.78;35.38;;;;;;;4.42;100.00;103054.91;10485021;28;20053;-63
2022/01/25 22:20:20;;;;;;;95.72;36.72;;;;;;;4.56;100.00;103050.56;10498719;28;20052;-63
2022/01/25 22:25:42;;;;;;;78.75;34.72;;;;;;;4.61;100.00;103048.81;10470439;28;20052;-63
2022/01/25 22:31:04;;;;;;;82.63;35.67;;;;;;;4.49;100.00;103054.03;10495107;28;20048;-63
2022/01/25 22:36:26;;;;;;;82.50;34.65;;;;;;;4.53;100.00;103053.13;10497951;28;20052;-63
2022/01/25 22:41:48;;;;;;;85.82;34.67;;;;;;;4.58;100.00;103048.81;10496636;28;20545;-63
2022/01/25 22:47:13;;;;;;;82.70;34.38;;;;;;;4.57;100.00;103041.94;10497041;28;20051;-63
2022/01/25 22:52:35;;;;;;;74.20;31.77;;;;;;;4.66;100.00;103039.34;10496866;28;20048;-63
2022/01/25 22:57:57;;;;;;;83.28;34.53;;;;;;;4.64;100.00;103043.66;10496415;28;20048;-63
2022/01/25 23:03:19;;;;;;;78.90;33.20;;;;;;;4.64;100.00;103035.91;10496577;28;20048;-63
2022/01/25 23:08:41;;;;;;;85.47;32.50;;;;;;;4.57;100.00;103032.47;10495657;28;20138;-63
2022/01/25 23:14:21;;;;;;;75.35;33.17;;;;;;;4.56;100.00;103030.78;10496436;28;20105;-63
2022/01/25 23:19:54;;;;;;;73.18;32.47;;;;;;;4.48;100.00;103031.66;10495542;28;20052;-63
2022/01/25 23:25:17;;;;;;;78.28;32.58;;;;;;;4.57;100.00;103053.16;10495021;28;20506;-63
2022/01/25 23:31:02;;;;;;;77.22;33.00;;;;;;;4.51;100.00;103042.00;10495995;28;20437;-63
2022/01/25 23:36:32;;;;;;;78.60;32.78;;;;;;;4.49;100.00;103041.13;10494846;28;20132;-63
2022/01/25 23:41:57;;;;;;;82.75;34.47;;;;;;;4.43;100.00;103034.28;10495092;28;20044;-63
2022/01/25 23:58:33;;;;;;;75.35;31.63;;;;;;;4.46;100.00;103028.22;10493973;28;20045;-63
